createdAt,value
2019-05-02T00:00:24.391Z,8.47
2019-05-02T00:01:24.381Z,8.42
2019-05-02T00:02:28.806Z,8.48
2019-05-02T00:03:25.379Z,8.44
2019-05-02T00:04:24.359Z,8.44
2019-05-02T00:05:27.442Z,8.48
2019-05-02T00:06:25.328Z,8.47
2019-05-02T00:07:24.318Z,8.45
2019-05-02T00:08:24.330Z,8.48
2019-05-02T00:09:24.308Z,8.42
2019-05-02T00:10:24.859Z,8.40
2019-05-02T00:11:24.285Z,8.36
2019-05-02T00:12:24.265Z,8.44
2019-05-02T00:13:24.257Z,8.30
2019-05-02T00:14:24.244Z,8.32
2019-05-02T00:15:24.245Z,8.37
2019-05-02T00:16:24.224Z,8.36
2019-05-02T00:17:25.555Z,8.37
2019-05-02T00:18:24.202Z,8.35
2019-05-02T00:19:24.191Z,8.37
2019-05-02T00:20:25.995Z,8.29
2019-05-02T00:21:24.180Z,8.35
2019-05-02T00:22:24.161Z,8.37
2019-05-02T00:23:27.924Z,8.40
2019-05-02T00:24:25.150Z,8.39
2019-05-02T00:25:24.127Z,8.47
2019-05-02T00:26:24.838Z,8.48
2019-05-02T00:27:24.131Z,8.47
2019-05-02T00:28:24.099Z,8.53
2019-05-02T00:29:25.053Z,8.51
2019-05-02T00:30:24.075Z,8.57
2019-05-02T00:31:24.063Z,8.55
2019-05-02T00:32:24.055Z,8.63
2019-05-02T00:33:24.055Z,8.57
2019-05-02T00:34:24.033Z,8.63
2019-05-02T00:35:24.020Z,8.71
2019-05-02T00:36:24.017Z,8.72
2019-05-02T00:37:24.628Z,8.71
2019-05-02T00:38:23.986Z,8.76
2019-05-02T00:39:23.995Z,8.79
2019-05-02T00:40:25.699Z,8.71
2019-05-02T00:41:23.954Z,8.83
2019-05-02T00:42:24.205Z,8.76
2019-05-02T00:43:23.934Z,8.79
2019-05-02T00:44:23.930Z,8.81
2019-05-02T00:45:25.825Z,8.75
2019-05-02T00:46:23.908Z,8.78
2019-05-02T00:47:23.889Z,8.71
2019-05-02T00:48:24.423Z,8.72
2019-05-02T00:49:23.871Z,8.73
2019-05-02T00:50:23.856Z,8.76
2019-05-02T00:51:26.703Z,8.78
2019-05-02T00:52:23.836Z,8.73
2019-05-02T00:53:23.824Z,8.71
2019-05-02T00:54:25.244Z,8.78
2019-05-02T00:55:23.803Z,8.81
2019-05-02T00:56:23.793Z,8.79
2019-05-02T00:57:23.799Z,8.87
2019-05-02T00:58:27.177Z,8.86
2019-05-02T00:59:24.759Z,8.83
2019-05-02T01:00:23.771Z,8.86
2019-05-02T01:01:24.328Z,8.87
2019-05-02T01:02:24.745Z,8.83
2019-05-02T01:03:23.718Z,8.83
2019-05-02T01:04:27.429Z,8.88
2019-05-02T01:05:24.695Z,8.87
2019-05-02T01:06:23.686Z,8.91
2019-05-02T01:07:25.596Z,8.83
2019-05-02T01:08:23.683Z,8.83
2019-05-02T01:09:23.676Z,8.90
2019-05-02T01:10:23.648Z,8.96
2019-05-02T01:11:23.632Z,8.86
2019-05-02T01:12:26.675Z,8.99
2019-05-02T01:13:23.619Z,8.96
2019-05-02T01:14:27.291Z,8.93
2019-05-02T01:15:24.594Z,8.93
2019-05-02T01:16:23.582Z,8.93
2019-05-02T01:17:26.085Z,8.99
2019-05-02T01:18:24.569Z,8.97
2019-05-02T01:19:23.547Z,8.86
2019-05-02T01:20:27.409Z,8.91
2019-05-02T01:21:23.526Z,8.87
2019-05-02T01:22:23.530Z,8.96
2019-05-02T01:23:27.653Z,8.90
2019-05-02T01:24:24.494Z,8.97
2019-05-02T01:25:23.485Z,8.96
2019-05-02T01:26:24.133Z,9.04
2019-05-02T01:27:24.465Z,9.04
2019-05-02T01:28:23.457Z,9.06
2019-05-02T01:29:24.787Z,9.05
2019-05-02T01:30:24.433Z,9.12
2019-05-02T01:31:23.421Z,9.01
2019-05-02T01:32:25.262Z,9.09
2019-05-02T01:33:24.401Z,9.10
2019-05-02T01:34:23.393Z,9.05
2019-05-02T01:35:26.937Z,9.01
2019-05-02T01:36:24.370Z,9.05
2019-05-02T01:37:23.363Z,9.06
2019-05-02T01:38:26.192Z,8.97
2019-05-02T01:39:24.337Z,9.01
2019-05-02T01:40:23.326Z,8.97
2019-05-02T01:41:24.118Z,8.93
2019-05-02T01:42:24.304Z,8.97
2019-05-02T01:43:24.192Z,8.91
2019-05-02T01:44:23.297Z,8.87
2019-05-02T01:45:23.274Z,8.94
2019-05-02T01:46:24.164Z,8.88
2019-05-02T01:47:23.254Z,8.93
2019-05-02T01:48:23.244Z,8.91
2019-05-02T01:49:23.263Z,8.91
2019-05-02T01:50:23.237Z,9.05
2019-05-02T01:51:23.217Z,8.99
2019-05-02T01:52:23.667Z,8.99
2019-05-02T01:53:23.198Z,8.99
2019-05-02T01:54:23.179Z,8.94
2019-05-02T01:55:23.191Z,8.99
2019-05-02T01:56:23.168Z,9.13
2019-05-02T01:57:23.148Z,8.99
2019-05-02T01:58:23.136Z,9.10
2019-05-02T01:59:23.128Z,8.99
2019-05-02T02:00:23.115Z,8.94
2019-05-02T02:01:23.371Z,8.93
2019-05-02T02:02:23.106Z,8.91
2019-05-02T02:03:23.084Z,8.93
2019-05-02T02:04:23.075Z,8.96
2019-05-02T02:05:23.062Z,8.93
2019-05-02T02:06:23.053Z,8.88
2019-05-02T02:07:23.044Z,8.88
2019-05-02T02:08:27.390Z,8.90
2019-05-02T02:09:24.020Z,8.86
2019-05-02T02:10:23.010Z,8.93
2019-05-02T02:11:23.000Z,8.88
2019-05-02T02:12:22.991Z,8.90
2019-05-02T02:13:22.979Z,8.94
2019-05-02T02:14:22.978Z,8.97
2019-05-02T02:15:25.045Z,8.99
2019-05-02T02:16:23.945Z,8.99
2019-05-02T02:17:22.937Z,8.87
2019-05-02T02:18:27.729Z,8.90
2019-05-02T02:19:23.927Z,8.88
2019-05-02T02:20:22.904Z,8.97
2019-05-02T02:21:25.850Z,8.93
2019-05-02T02:22:22.884Z,8.93
2019-05-02T02:23:22.872Z,8.94
2019-05-02T02:24:25.196Z,8.94
2019-05-02T02:25:22.865Z,8.99
2019-05-02T02:26:22.846Z,9.06
2019-05-02T02:27:24.607Z,9.04
2019-05-02T02:28:22.821Z,9.01
2019-05-02T02:29:22.810Z,9.10
2019-05-02T02:30:24.681Z,9.02
2019-05-02T02:31:22.800Z,9.06
2019-05-02T02:32:26.803Z,9.04
2019-05-02T02:33:23.769Z,9.01
2019-05-02T02:34:29.237Z,9.12
2019-05-02T02:35:23.749Z,9.04
2019-05-02T02:36:31.491Z,9.02
2019-05-02T02:37:23.737Z,9.05
2019-05-02T02:38:26.785Z,9.05
2019-05-02T02:39:23.704Z,9.09
2019-05-02T02:40:32.567Z,9.09
2019-05-02T02:41:23.682Z,9.12
2019-05-02T02:42:25.000Z,9.15
2019-05-02T02:43:34.390Z,9.13
2019-05-02T02:44:23.650Z,9.12
2019-05-02T02:45:22.642Z,9.06
2019-05-02T02:46:22.631Z,9.09
2019-05-02T02:47:22.621Z,9.05
2019-05-02T02:48:22.610Z,9.16
2019-05-02T02:49:24.528Z,9.09
2019-05-02T02:50:22.606Z,9.20
2019-05-02T02:51:24.539Z,9.13
2019-05-02T02:52:22.567Z,9.12
2019-05-02T02:53:24.179Z,9.09
2019-05-02T02:54:22.545Z,9.15
2019-05-02T02:55:24.482Z,9.18
2019-05-02T02:56:22.524Z,9.09
2019-05-02T02:57:27.926Z,9.09
2019-05-02T02:58:23.501Z,9.09
2019-05-02T02:59:26.442Z,9.12
2019-05-02T03:00:22.481Z,9.15
2019-05-02T03:01:28.920Z,9.13
2019-05-02T03:02:23.459Z,9.18
2019-05-02T03:03:27.790Z,9.15
2019-05-02T03:04:23.443Z,9.12
2019-05-02T03:05:26.148Z,9.05
2019-05-02T03:06:23.424Z,9.09
2019-05-02T03:07:25.743Z,9.13
2019-05-02T03:08:23.406Z,9.09
2019-05-02T03:09:26.478Z,9.21
2019-05-02T03:10:23.378Z,9.04
2019-05-02T03:11:23.428Z,9.16
2019-05-02T03:12:22.371Z,9.12
2019-05-02T03:13:24.250Z,9.13
2019-05-02T03:14:22.334Z,9.09
2019-05-02T03:15:27.949Z,9.09
2019-05-02T03:16:23.307Z,9.15
2019-05-02T03:17:26.409Z,9.25
2019-05-02T03:18:26.928Z,9.23
2019-05-02T03:19:23.258Z,9.24
2019-05-02T03:20:22.266Z,9.18
2019-05-02T03:21:22.700Z,9.12
2019-05-02T03:22:22.253Z,9.23
2019-05-02T03:23:24.151Z,9.23
2019-05-02T03:24:22.234Z,9.15
2019-05-02T03:25:26.942Z,9.27
2019-05-02T03:26:23.206Z,9.23
2019-05-02T03:27:22.191Z,9.15
2019-05-02T03:28:22.179Z,9.27
2019-05-02T03:29:22.173Z,9.27
2019-05-02T03:30:33.002Z,9.20
2019-05-02T03:31:29.021Z,9.21
2019-05-02T03:32:33.111Z,9.15
2019-05-02T03:33:23.126Z,9.23
2019-05-02T03:34:22.140Z,9.27
2019-05-02T03:35:40.415Z,9.20
2019-05-02T03:36:30.065Z,9.23
2019-05-02T03:37:23.083Z,9.12
2019-05-02T03:38:31.348Z,9.16
2019-05-02T03:39:23.059Z,9.16
2019-05-02T03:40:22.051Z,9.24
2019-05-02T03:41:23.567Z,9.18
2019-05-02T03:42:22.052Z,9.18
2019-05-02T03:43:25.735Z,9.23
2019-05-02T03:44:25.941Z,9.24
2019-05-02T03:45:22.007Z,9.30
2019-05-02T03:46:22.770Z,9.32
2019-05-02T03:47:21.976Z,9.39
2019-05-02T03:48:25.714Z,9.28
2019-05-02T03:49:22.953Z,9.31
2019-05-02T03:50:31.663Z,9.28
2019-05-02T03:51:25.264Z,9.35
2019-05-02T03:52:21.921Z,9.32
2019-05-02T03:53:24.965Z,9.30
2019-05-02T03:54:22.919Z,9.31
2019-05-02T03:55:23.719Z,9.25
2019-05-02T03:56:22.883Z,9.24
2019-05-02T03:57:31.672Z,9.20
2019-05-02T03:58:22.856Z,9.24
2019-05-02T03:59:21.845Z,9.32
2019-05-02T04:00:24.357Z,9.28
2019-05-02T04:01:21.826Z,9.30
2019-05-02T04:02:21.949Z,9.34
2019-05-02T04:03:21.814Z,9.38
2019-05-02T04:04:22.788Z,9.35
2019-05-02T04:05:21.788Z,9.30
2019-05-02T04:06:23.785Z,9.27
2019-05-02T04:07:21.763Z,9.23
2019-05-02T04:08:22.754Z,9.13
2019-05-02T04:09:21.739Z,9.25
2019-05-02T04:10:21.727Z,9.23
2019-05-02T04:11:21.716Z,9.18
2019-05-02T04:12:22.023Z,9.18
2019-05-02T04:13:21.695Z,9.21
2019-05-02T04:14:36.806Z,9.23
2019-05-02T04:15:28.690Z,9.13
2019-05-02T04:16:22.668Z,9.27
2019-05-02T04:17:21.653Z,9.25
2019-05-02T04:18:21.657Z,9.20
2019-05-02T04:19:21.631Z,9.27
2019-05-02T04:20:21.620Z,9.34
2019-05-02T04:21:24.434Z,9.35
2019-05-02T04:22:21.597Z,9.35
2019-05-02T04:23:27.659Z,9.39
2019-05-02T04:24:22.595Z,9.31
2019-05-02T04:25:28.088Z,9.39
2019-05-02T04:26:22.560Z,9.34
2019-05-02T04:27:21.544Z,9.43
2019-05-02T04:28:21.532Z,9.42
2019-05-02T04:29:24.581Z,9.48
2019-05-02T04:30:22.524Z,9.48
2019-05-02T04:31:24.877Z,9.50
2019-05-02T04:32:22.498Z,9.45
2019-05-02T04:33:21.491Z,9.49
2019-05-02T04:34:21.471Z,9.50
2019-05-02T04:35:21.457Z,9.48
2019-05-02T04:36:21.459Z,9.40
2019-05-02T04:37:21.439Z,9.40
2019-05-02T04:38:31.634Z,9.39
2019-05-02T04:39:22.421Z,9.32
2019-05-02T04:40:21.406Z,9.35
2019-05-02T04:41:28.500Z,9.35
2019-05-02T04:42:23.340Z,9.32
2019-05-02T04:43:21.392Z,9.27
2019-05-02T04:44:21.372Z,9.35
2019-05-02T04:45:28.767Z,9.34
2019-05-02T04:46:27.286Z,9.28
2019-05-02T04:47:22.419Z,9.32
2019-05-02T04:48:21.332Z,9.31
2019-05-02T04:49:29.899Z,9.27
2019-05-02T04:50:25.381Z,9.32
2019-05-02T04:51:21.286Z,9.38
2019-05-02T04:52:21.484Z,9.28
2019-05-02T04:53:26.068Z,9.35
2019-05-02T04:54:28.033Z,9.30
2019-05-02T04:55:29.224Z,9.31
2019-05-02T04:56:22.234Z,9.32
2019-05-02T04:57:29.763Z,9.27
2019-05-02T04:58:28.002Z,9.28
2019-05-02T04:59:23.111Z,9.38
2019-05-02T05:00:21.200Z,9.34
2019-05-02T05:01:21.628Z,9.23
2019-05-02T05:02:29.625Z,9.27
2019-05-02T05:03:22.155Z,9.25
2019-05-02T05:04:21.146Z,9.30
2019-05-02T05:05:25.488Z,9.31
2019-05-02T05:06:22.134Z,9.38
2019-05-02T05:07:21.115Z,9.32
2019-05-02T05:08:26.303Z,9.35
2019-05-02T05:09:22.090Z,9.30
2019-05-02T05:10:21.081Z,9.39
2019-05-02T05:11:24.836Z,9.25
2019-05-02T05:12:21.069Z,9.35
2019-05-02T05:13:23.305Z,9.31
2019-05-02T05:14:21.039Z,9.34
2019-05-02T05:15:35.494Z,9.34
2019-05-02T05:16:22.014Z,9.34
2019-05-02T05:17:25.196Z,9.38
2019-05-02T05:18:22.008Z,9.40
2019-05-02T05:19:23.141Z,9.35
2019-05-02T05:20:21.975Z,9.32
2019-05-02T05:21:24.682Z,9.38
2019-05-02T05:22:20.956Z,9.42
2019-05-02T05:23:21.617Z,9.50
2019-05-02T05:24:20.950Z,9.46
2019-05-02T05:25:21.421Z,9.48
2019-05-02T05:26:20.909Z,9.45
2019-05-02T05:27:22.770Z,9.48
2019-05-02T05:28:20.888Z,9.49
2019-05-02T05:29:23.284Z,9.52
2019-05-02T05:30:20.880Z,9.48
2019-05-02T05:31:23.975Z,9.49
2019-05-02T05:32:20.844Z,9.46
2019-05-02T05:33:20.836Z,9.45
2019-05-02T05:34:22.785Z,9.49
2019-05-02T05:35:21.832Z,9.48
2019-05-02T05:36:29.169Z,9.45
2019-05-02T05:37:21.788Z,9.48
2019-05-02T05:38:23.060Z,9.45
2019-05-02T05:39:21.766Z,9.46
2019-05-02T05:40:22.482Z,9.40
2019-05-02T05:41:23.272Z,9.32
2019-05-02T05:42:23.147Z,9.32
2019-05-02T05:43:21.723Z,9.28
2019-05-02T05:44:23.228Z,9.32
2019-05-02T05:45:21.701Z,9.31
2019-05-02T05:46:20.691Z,9.35
2019-05-02T05:47:21.413Z,9.32
2019-05-02T05:48:20.671Z,9.28
2019-05-02T05:49:21.843Z,9.32
2019-05-02T05:50:20.649Z,9.38
2019-05-02T05:51:20.847Z,9.32
2019-05-02T05:52:20.627Z,9.45
2019-05-02T05:53:21.405Z,9.42
2019-05-02T05:54:20.605Z,9.48
2019-05-02T05:55:24.202Z,9.48
2019-05-02T05:56:20.585Z,9.57
2019-05-02T05:57:21.214Z,9.57
2019-05-02T05:58:20.561Z,9.58
2019-05-02T05:59:22.316Z,9.56
2019-05-02T06:00:23.171Z,9.53
2019-05-02T06:01:20.642Z,9.61
2019-05-02T06:02:20.517Z,9.56
2019-05-02T06:03:20.511Z,9.57
2019-05-02T06:04:23.642Z,9.60
2019-05-02T06:05:21.494Z,9.61
2019-05-02T06:06:23.204Z,9.58
2019-05-02T06:07:20.463Z,9.57
2019-05-02T06:08:20.452Z,9.52
2019-05-02T06:09:20.441Z,9.57
2019-05-02T06:10:20.432Z,9.60
2019-05-02T06:11:21.782Z,9.56
2019-05-02T06:12:20.408Z,9.52
2019-05-02T06:13:20.402Z,9.49
2019-05-02T06:14:24.888Z,9.48
2019-05-02T06:15:21.376Z,9.46
2019-05-02T06:16:20.367Z,9.45
2019-05-02T06:17:23.165Z,9.43
2019-05-02T06:18:21.342Z,9.46
2019-05-02T06:19:20.333Z,9.46
2019-05-02T06:20:20.322Z,9.43
2019-05-02T06:21:20.322Z,9.61
2019-05-02T06:22:24.325Z,9.49
2019-05-02T06:23:21.299Z,9.58
2019-05-02T06:24:20.278Z,9.49
2019-05-02T06:25:32.929Z,9.45
2019-05-02T06:26:21.256Z,9.46
2019-05-02T06:27:20.800Z,9.48
2019-05-02T06:28:20.234Z,9.45
2019-05-02T06:29:20.942Z,9.52
2019-05-02T06:30:20.215Z,9.57
2019-05-02T06:31:20.202Z,9.49
2019-05-02T06:32:20.710Z,9.58
2019-05-02T06:33:20.180Z,9.57
2019-05-02T06:34:20.171Z,9.58
2019-05-02T06:35:21.116Z,9.56
2019-05-02T06:36:20.148Z,9.57
2019-05-02T06:37:20.140Z,9.57
2019-05-02T06:38:21.554Z,9.46
2019-05-02T06:39:20.114Z,9.45
2019-05-02T06:40:20.104Z,9.49
2019-05-02T06:41:20.913Z,9.40
2019-05-02T06:42:20.082Z,9.48
2019-05-02T06:43:20.072Z,9.40
2019-05-02T06:44:23.980Z,9.45
2019-05-02T06:45:21.049Z,9.48
2019-05-02T06:46:21.594Z,9.49
2019-05-02T06:47:21.039Z,9.48
2019-05-02T06:48:20.019Z,9.46
2019-05-02T06:49:24.288Z,9.46
2019-05-02T06:50:20.995Z,9.45
2019-05-02T06:51:21.159Z,9.49
2019-05-02T06:52:19.974Z,9.56
2019-05-02T06:53:19.975Z,9.56
2019-05-02T06:54:22.846Z,9.57
2019-05-02T06:55:19.942Z,9.50
2019-05-02T06:56:19.931Z,9.56
2019-05-02T06:57:24.013Z,9.68
2019-05-02T06:58:20.927Z,9.66
2019-05-02T06:59:20.336Z,9.63
2019-05-02T07:00:19.888Z,9.64
2019-05-02T07:01:21.400Z,9.73
2019-05-02T07:02:19.866Z,9.68
2019-05-02T07:03:19.855Z,9.70
2019-05-02T07:04:22.793Z,9.60
2019-05-02T07:05:19.839Z,9.71
2019-05-02T07:06:19.864Z,9.73
2019-05-02T07:07:24.560Z,9.76
2019-05-02T07:08:20.808Z,9.85
2019-05-02T07:09:19.885Z,9.88
2019-05-02T07:10:25.091Z,9.99
2019-05-02T07:11:20.769Z,10.01
2019-05-02T07:12:19.763Z,10.15
2019-05-02T07:13:19.749Z,10.21
2019-05-02T07:14:23.651Z,10.17
2019-05-02T07:15:20.823Z,10.30
2019-05-02T07:16:37.186Z,10.37
2019-05-02T07:17:20.705Z,10.39
2019-05-02T07:18:19.694Z,10.37
2019-05-02T07:19:21.885Z,10.36
2019-05-02T07:20:20.675Z,10.43
2019-05-02T07:21:23.403Z,10.62
2019-05-02T07:22:19.653Z,10.78
2019-05-02T07:23:19.640Z,10.80
2019-05-02T07:24:19.629Z,10.96
2019-05-02T07:25:19.619Z,10.98
2019-05-02T07:26:21.041Z,11.03
2019-05-02T07:27:19.608Z,11.06
2019-05-02T07:28:19.586Z,11.06
2019-05-02T07:29:21.848Z,11.13
2019-05-02T07:30:19.564Z,11.10
2019-05-02T07:31:19.554Z,11.19
2019-05-02T07:32:24.478Z,11.03
2019-05-02T07:33:20.542Z,11.09
2019-05-02T07:34:19.521Z,11.11
2019-05-02T07:35:24.568Z,11.14
2019-05-02T07:36:20.499Z,11.35
2019-05-02T07:37:19.489Z,11.56
2019-05-02T07:38:20.142Z,11.56
2019-05-02T07:39:20.480Z,11.57
2019-05-02T07:40:19.457Z,11.67
2019-05-02T07:41:19.447Z,11.70
2019-05-02T07:42:19.437Z,11.67
2019-05-02T07:43:22.167Z,11.78
2019-05-02T07:44:19.417Z,11.74
2019-05-02T07:45:19.414Z,11.86
2019-05-02T07:46:20.931Z,11.86
2019-05-02T07:47:19.384Z,11.72
2019-05-02T07:48:19.372Z,11.80
2019-05-02T07:49:20.864Z,12.04
2019-05-02T07:50:19.350Z,12.16
2019-05-02T07:51:21.336Z,12.15
2019-05-02T07:52:19.333Z,12.02
2019-05-02T07:53:19.318Z,12.01
2019-05-02T07:54:24.441Z,12.13
2019-05-02T07:55:20.352Z,12.21
2019-05-02T07:56:19.285Z,12.49
2019-05-02T07:57:19.286Z,12.52
2019-05-02T07:58:19.265Z,12.59
2019-05-02T07:59:23.332Z,12.84
2019-05-02T08:00:19.242Z,12.66
2019-05-02T08:01:19.232Z,12.84
2019-05-02T08:02:20.340Z,12.81
2019-05-02T08:03:20.219Z,12.79
2019-05-02T08:04:19.199Z,12.89
2019-05-02T08:05:21.862Z,12.87
2019-05-02T08:06:19.178Z,12.82
2019-05-02T08:07:21.098Z,12.79
2019-05-02T08:08:19.163Z,12.97
2019-05-02T08:09:19.158Z,13.12
2019-05-02T08:10:22.045Z,13.20
2019-05-02T08:11:19.123Z,13.14
2019-05-02T08:12:19.116Z,13.14
2019-05-02T08:13:19.453Z,13.30
2019-05-02T08:14:19.093Z,13.47
2019-05-02T08:15:19.091Z,13.51
2019-05-02T08:16:22.397Z,13.61
2019-05-02T08:17:20.058Z,13.71
2019-05-02T08:18:19.049Z,13.69
2019-05-02T08:19:19.039Z,13.67
2019-05-02T08:20:19.901Z,13.61
2019-05-02T08:21:19.030Z,13.62
2019-05-02T08:22:19.011Z,13.58
2019-05-02T08:23:20.408Z,13.65
2019-05-02T08:24:19.984Z,13.63
2019-05-02T08:25:18.974Z,13.54
2019-05-02T08:26:21.790Z,13.69
2019-05-02T08:27:18.963Z,13.80
2019-05-02T08:28:18.945Z,13.87
2019-05-02T08:29:23.436Z,14.07
2019-05-02T08:30:19.921Z,14.14
2019-05-02T08:31:20.926Z,14.31
2019-05-02T08:32:18.899Z,14.46
2019-05-02T08:33:18.900Z,14.61
2019-05-02T08:34:18.882Z,14.71
2019-05-02T08:35:18.869Z,14.81
2019-05-02T08:36:18.859Z,14.91
2019-05-02T08:37:18.846Z,15.05
2019-05-02T08:38:19.009Z,14.98
2019-05-02T08:39:18.838Z,14.88
2019-05-02T08:40:18.814Z,14.75
2019-05-02T08:41:19.981Z,14.57
2019-05-02T08:42:18.792Z,14.42
2019-05-02T08:43:18.781Z,14.14
2019-05-02T08:44:18.770Z,14.07
2019-05-02T08:45:18.770Z,14.20
2019-05-02T08:46:18.750Z,14.19
2019-05-02T08:47:19.402Z,14.13
2019-05-02T08:48:18.729Z,14.17
2019-05-02T08:49:19.980Z,14.29
2019-05-02T08:50:18.708Z,14.20
2019-05-02T08:51:18.707Z,14.27
2019-05-02T08:52:18.688Z,14.02
2019-05-02T08:53:19.850Z,14.06
2019-05-02T08:54:18.665Z,13.96
2019-05-02T08:55:18.658Z,14.04
2019-05-02T08:56:21.361Z,14.06
2019-05-02T08:57:18.654Z,14.24
2019-05-02T08:58:18.622Z,14.19
2019-05-02T08:59:19.757Z,14.27
2019-05-02T09:00:18.600Z,14.19
2019-05-02T09:01:18.595Z,14.20
2019-05-02T09:02:21.152Z,14.21
2019-05-02T09:03:19.585Z,14.38
2019-05-02T09:04:18.558Z,14.56
2019-05-02T09:05:18.545Z,14.62
2019-05-02T09:06:22.377Z,14.74
2019-05-02T09:07:19.568Z,14.81
2019-05-02T09:08:18.516Z,15.01
2019-05-02T09:09:22.819Z,14.93
2019-05-02T09:10:19.492Z,14.94
2019-05-02T09:11:18.482Z,14.83
2019-05-02T09:12:20.141Z,14.62
2019-05-02T09:13:26.396Z,14.74
2019-05-02T09:14:21.614Z,14.81
2019-05-02T09:15:18.440Z,14.93
2019-05-02T09:16:23.670Z,15.03
2019-05-02T09:17:33.145Z,14.93
2019-05-02T09:18:21.745Z,15.05
2019-05-02T09:19:21.493Z,15.06
2019-05-02T09:20:20.855Z,15.09
2019-05-02T09:21:18.377Z,15.26
2019-05-02T09:22:18.367Z,15.26
2019-05-02T09:23:18.355Z,15.28
2019-05-02T09:24:21.272Z,15.28
2019-05-02T09:25:19.333Z,15.38
2019-05-02T09:26:31.968Z,15.36
2019-05-02T09:27:19.311Z,15.20
2019-05-02T09:28:22.485Z,15.24
2019-05-02T09:29:19.290Z,15.31
2019-05-02T09:30:24.474Z,15.48
2019-05-02T09:31:19.279Z,15.57
2019-05-02T09:32:22.842Z,15.66
2019-05-02T09:33:19.249Z,15.66
2019-05-02T09:34:22.857Z,15.74
2019-05-02T09:35:19.227Z,15.78
2019-05-02T09:36:18.219Z,15.70
2019-05-02T09:37:18.218Z,15.74
2019-05-02T09:38:18.198Z,15.79
2019-05-02T09:39:18.185Z,15.81
2019-05-02T09:40:18.175Z,15.81
2019-05-02T09:41:19.403Z,15.59
2019-05-02T09:42:19.144Z,15.74
2019-05-02T09:43:18.155Z,15.70
2019-05-02T09:44:18.814Z,15.74
2019-05-02T09:45:18.122Z,15.68
2019-05-02T09:46:18.111Z,15.56
2019-05-02T09:47:18.103Z,15.74
2019-05-02T09:48:22.864Z,15.81
2019-05-02T09:49:19.090Z,15.86
2019-05-02T09:50:20.546Z,15.84
2019-05-02T09:51:19.058Z,15.92
2019-05-02T09:52:18.048Z,15.78
2019-05-02T09:53:20.937Z,15.68
2019-05-02T09:54:19.029Z,15.57
2019-05-02T09:55:18.027Z,15.41
2019-05-02T09:56:18.006Z,15.43
2019-05-02T09:57:17.995Z,15.38
2019-05-02T09:58:21.216Z,15.43
2019-05-02T09:59:29.267Z,15.49
2019-05-02T10:00:18.972Z,15.56
2019-05-02T10:01:17.951Z,15.70
2019-05-02T10:02:17.941Z,15.81
2019-05-02T10:03:17.936Z,15.76
2019-05-02T10:04:17.919Z,15.81
2019-05-02T10:05:17.918Z,15.86
2019-05-02T10:06:18.376Z,15.97
2019-05-02T10:07:17.887Z,16.03
2019-05-02T10:08:17.876Z,16.11
2019-05-02T10:09:18.650Z,16.11
2019-05-02T10:10:18.854Z,16.06
2019-05-02T10:11:24.431Z,16.09
2019-05-02T10:12:18.843Z,16.15
2019-05-02T10:13:17.834Z,16.31
2019-05-02T10:14:17.824Z,16.40
2019-05-02T10:15:17.939Z,16.44
2019-05-02T10:16:22.377Z,16.48
2019-05-02T10:17:18.785Z,16.53
2019-05-02T10:18:19.689Z,16.48
2019-05-02T10:19:18.765Z,16.35
2019-05-02T10:20:17.750Z,16.34
2019-05-02T10:21:17.739Z,16.31
2019-05-02T10:22:17.731Z,16.31
2019-05-02T10:23:19.554Z,16.35
2019-05-02T10:24:17.719Z,16.34
2019-05-02T10:25:17.698Z,16.41
2019-05-02T10:26:20.028Z,16.41
2019-05-02T10:27:17.676Z,16.35
2019-05-02T10:28:17.665Z,16.26
2019-05-02T10:29:22.821Z,16.34
2019-05-02T10:30:18.654Z,16.30
2019-05-02T10:31:17.633Z,16.25
2019-05-02T10:32:17.623Z,16.34
2019-05-02T10:33:17.613Z,16.31
2019-05-02T10:34:17.904Z,16.33
2019-05-02T10:35:17.592Z,16.35
2019-05-02T10:36:19.575Z,16.45
2019-05-02T10:37:17.568Z,16.35
2019-05-02T10:38:19.429Z,16.40
2019-05-02T10:39:17.557Z,16.38
2019-05-02T10:40:17.600Z,16.30
2019-05-02T10:41:17.530Z,16.20
2019-05-02T10:42:17.526Z,16.23
2019-05-02T10:43:17.506Z,16.14
2019-05-02T10:44:17.493Z,16.18
2019-05-02T10:45:17.483Z,16.12
2019-05-02T10:46:17.473Z,16.14
2019-05-02T10:47:17.464Z,16.27
2019-05-02T10:48:25.876Z,16.48
2019-05-02T10:49:18.440Z,16.45
2019-05-02T10:50:17.431Z,16.40
2019-05-02T10:51:17.424Z,16.53
2019-05-02T10:52:21.689Z,16.55
2019-05-02T10:53:18.416Z,16.65
2019-05-02T10:54:20.376Z,16.62
2019-05-02T10:55:17.384Z,16.67
2019-05-02T10:56:17.366Z,16.60
2019-05-02T10:57:17.376Z,16.70
2019-05-02T10:58:17.348Z,16.75
2019-05-02T10:59:17.362Z,16.71
2019-05-02T11:00:17.326Z,16.74
2019-05-02T11:01:17.311Z,16.83
2019-05-02T11:02:17.301Z,16.70
2019-05-02T11:03:17.290Z,16.73
2019-05-02T11:04:17.279Z,16.88
2019-05-02T11:05:22.588Z,16.90
2019-05-02T11:06:18.255Z,17.08
2019-05-02T11:07:21.943Z,17.06
2019-05-02T11:08:18.236Z,17.04
2019-05-02T11:09:22.502Z,17.15
2019-05-02T11:10:18.225Z,17.13
2019-05-02T11:11:17.205Z,17.13
2019-05-02T11:12:24.232Z,17.03
2019-05-02T11:13:18.181Z,16.88
2019-05-02T11:14:17.169Z,16.80
2019-05-02T11:15:17.170Z,16.70
2019-05-02T11:16:17.167Z,16.70
2019-05-02T11:17:17.992Z,16.75
2019-05-02T11:18:17.130Z,16.92
2019-05-02T11:19:17.196Z,16.85
2019-05-02T11:20:17.106Z,16.99
2019-05-02T11:21:18.827Z,16.96
2019-05-02T11:22:17.101Z,16.99
2019-05-02T11:23:17.072Z,17.06
2019-05-02T11:24:17.060Z,16.98
2019-05-02T11:25:17.050Z,17.04
2019-05-02T11:26:21.505Z,17.04
2019-05-02T11:27:18.046Z,16.99
2019-05-02T11:28:17.021Z,16.93
2019-05-02T11:29:17.008Z,16.98
2019-05-02T11:30:21.499Z,17.06
2019-05-02T11:31:17.982Z,17.06
2019-05-02T11:32:16.979Z,17.07
2019-05-02T11:33:16.992Z,17.15
2019-05-02T11:34:16.962Z,17.20
2019-05-02T11:35:16.942Z,17.17
2019-05-02T11:36:16.931Z,17.25
2019-05-02T11:37:16.921Z,17.26
2019-05-02T11:38:37.135Z,17.25
2019-05-02T11:39:25.476Z,17.29
2019-05-02T11:40:17.887Z,17.41
2019-05-02T11:41:16.879Z,17.44
2019-05-02T11:42:17.672Z,17.50
2019-05-02T11:43:17.857Z,17.55
2019-05-02T11:44:16.847Z,17.47
2019-05-02T11:45:16.847Z,17.53
2019-05-02T11:46:16.823Z,17.50
2019-05-02T11:47:17.290Z,17.63
2019-05-02T11:48:19.636Z,17.55
2019-05-02T11:49:16.791Z,17.51
2019-05-02T11:50:16.788Z,17.54
2019-05-02T11:51:16.778Z,17.57
2019-05-02T11:52:16.772Z,17.54
2019-05-02T11:53:29.016Z,17.54
2019-05-02T11:54:17.735Z,17.69
2019-05-02T11:55:18.997Z,17.67
2019-05-02T11:56:17.727Z,17.64
2019-05-02T11:57:22.719Z,17.57
2019-05-02T11:58:17.690Z,17.55
2019-05-02T11:59:20.786Z,17.51
2019-05-02T12:00:17.669Z,17.46
2019-05-02T12:01:20.163Z,17.51
2019-05-02T12:02:18.979Z,17.47
2019-05-02T12:03:16.638Z,17.55
2019-05-02T12:04:17.058Z,17.47
2019-05-02T12:05:16.629Z,17.44
2019-05-02T12:06:19.772Z,17.44
2019-05-02T12:07:16.603Z,17.51
2019-05-02T12:08:16.600Z,17.50
2019-05-02T12:09:16.571Z,17.47
2019-05-02T12:10:16.561Z,17.41
2019-05-02T12:11:17.805Z,17.47
2019-05-02T12:12:16.538Z,17.48
2019-05-02T12:13:16.532Z,17.46
2019-05-02T12:14:16.528Z,17.44
2019-05-02T12:15:16.505Z,17.46
2019-05-02T12:16:16.495Z,17.50
2019-05-02T12:17:16.488Z,17.41
2019-05-02T12:18:16.472Z,17.38
2019-05-02T12:19:16.469Z,17.23
2019-05-02T12:20:16.479Z,17.28
2019-05-02T12:21:16.445Z,17.20
2019-05-02T12:22:17.059Z,17.17
2019-05-02T12:23:16.424Z,17.13
2019-05-02T12:24:16.410Z,17.10
2019-05-02T12:25:16.399Z,16.96
2019-05-02T12:26:16.404Z,16.85
2019-05-02T12:27:16.383Z,16.89
2019-05-02T12:28:16.368Z,16.83
2019-05-02T12:29:16.362Z,16.80
2019-05-02T12:30:16.346Z,16.83
2019-05-02T12:31:16.741Z,16.80
2019-05-02T12:32:16.338Z,16.81
2019-05-02T12:33:16.326Z,16.81
2019-05-02T12:34:16.303Z,16.80
2019-05-02T12:35:16.292Z,16.71
2019-05-02T12:36:16.293Z,16.63
2019-05-02T12:37:16.273Z,16.63
2019-05-02T12:38:16.269Z,16.58
2019-05-02T12:39:16.250Z,16.49
2019-05-02T12:40:16.237Z,16.49
2019-05-02T12:41:22.256Z,16.45
2019-05-02T12:42:17.630Z,16.40
2019-05-02T12:43:16.206Z,16.31
2019-05-02T12:44:16.206Z,16.18
2019-05-02T12:45:16.192Z,16.23
2019-05-02T12:46:16.190Z,16.15
2019-05-02T12:47:16.162Z,16.14
2019-05-02T12:48:16.191Z,16.03
2019-05-02T12:49:25.276Z,16.06
2019-05-02T12:50:17.142Z,16.01
2019-05-02T12:51:16.123Z,16.04
2019-05-02T12:52:16.109Z,15.96
2019-05-02T12:53:16.098Z,15.92
2019-05-02T12:54:16.087Z,15.81
2019-05-02T12:55:16.076Z,15.84
2019-05-02T12:56:16.079Z,15.86
2019-05-02T12:57:16.055Z,15.79
2019-05-02T12:58:16.045Z,15.76
2019-05-02T12:59:16.033Z,15.81
2019-05-02T13:00:18.425Z,15.79
2019-05-02T13:01:16.012Z,15.78
2019-05-02T13:02:16.016Z,15.76
2019-05-02T13:03:15.996Z,15.78
2019-05-02T13:04:15.980Z,15.76
2019-05-02T13:05:15.969Z,15.79
2019-05-02T13:06:15.974Z,15.68